sensor_id;sensor_type;location;lat;lon;timestamp;P1;durP1;ratioP1;P2;durP2;ratioP2
49536;SDS011;74893;30.696;104.058;2023-12-29T00:02:18;135.02;;;120.78;;
49536;SDS011;74893;30.696;104.058;2023-12-29T00:04:45;138.18;;;123.90;;
49536;SDS011;74893;30.696;104.058;2023-12-29T00:07:12;135.45;;;121.20;;
49536;SDS011;74893;30.696;104.058;2023-12-29T00:09:39;131.75;;;118.03;;
49536;SDS011;74893;30.696;104.058;2023-12-29T00:12:07;136.68;;;121.70;;
49536;SDS011;74893;30.696;104.058;2023-12-29T00:14:38;133.25;;;119.22;;
49536;SDS011;74893;30.696;104.058;2023-12-29T00:17:05;134.15;;;118.80;;
49536;SDS011;74893;30.696;104.058;2023-12-29T00:19:32;133.40;;;119.20;;
49536;SDS011;74893;30.696;104.058;2023-12-29T00:21:59;134.38;;;120.13;;
49536;SDS011;74893;30.696;104.058;2023-12-29T00:24:29;137.48;;;122.65;;
49536;SDS011;74893;30.696;104.058;2023-12-29T00:26:59;138.15;;;123.45;;
49536;SDS011;74893;30.696;104.058;2023-12-29T00:29:26;134.23;;;119.88;;
49536;SDS011;74893;30.696;104.058;2023-12-29T00:31:58;133.25;;;119.10;;
49536;SDS011;74893;30.696;104.058;2023-12-29T00:34:44;137.60;;;122.82;;
49536;SDS011;74893;30.696;104.058;2023-12-29T00:37:11;137.40;;;122.82;;
49536;SDS011;74893;30.696;104.058;2023-12-29T00:39:38;135.65;;;121.00;;
49536;SDS011;74893;30.696;104.058;2023-12-29T00:42:06;138.73;;;124.03;;
49536;SDS011;74893;30.696;104.058;2023-12-29T00:44:35;139.73;;;124.78;;
49536;SDS011;74893;30.696;104.058;2023-12-29T00:47:02;137.07;;;122.55;;
49536;SDS011;74893;30.696;104.058;2023-12-29T00:49:29;136.10;;;121.70;;
49536;SDS011;74893;30.696;104.058;2023-12-29T00:51:56;138.90;;;124.40;;
49536;SDS011;74893;30.696;104.058;2023-12-29T00:54:23;139.23;;;124.25;;
49536;SDS011;74893;30.696;104.058;2023-12-29T00:56:51;139.10;;;124.30;;
49536;SDS011;74893;30.696;104.058;2023-12-29T00:59:18;138.50;;;124.03;;
49536;SDS011;74893;30.696;104.058;2023-12-29T01:01:45;140.15;;;125.43;;
49536;SDS011;74893;30.696;104.058;2023-12-29T01:04:12;135.85;;;121.00;;
49536;SDS011;74893;30.696;104.058;2023-12-29T01:06:39;137.82;;;122.93;;
49536;SDS011;74893;30.696;104.058;2023-12-29T01:09:06;136.93;;;122.70;;
49536;SDS011;74893;30.696;104.058;2023-12-29T01:11:35;139.68;;;124.80;;
49536;SDS011;74893;30.696;104.058;2023-12-29T01:14:02;140.90;;;125.75;;
49536;SDS011;74893;30.696;104.058;2023-12-29T01:16:29;137.75;;;123.10;;
49536;SDS011;74893;30.696;104.058;2023-12-29T01:18:56;139.82;;;124.75;;
49536;SDS011;74893;30.696;104.058;2023-12-29T01:21:26;142.75;;;127.55;;
49536;SDS011;74893;30.696;104.058;2023-12-29T01:23:54;135.35;;;121.00;;
49536;SDS011;74893;30.696;104.058;2023-12-29T01:26:21;139.07;;;124.43;;
49536;SDS011;74893;30.696;104.058;2023-12-29T01:28:48;143.23;;;127.97;;
49536;SDS011;74893;30.696;104.058;2023-12-29T01:31:15;140.60;;;125.57;;
49536;SDS011;74893;30.696;104.058;2023-12-29T01:33:42;137.48;;;122.78;;
49536;SDS011;74893;30.696;104.058;2023-12-29T01:36:16;144.45;;;129.05;;
49536;SDS011;74893;30.696;104.058;2023-12-29T01:38:43;142.68;;;127.53;;
49536;SDS011;74893;30.696;104.058;2023-12-29T01:41:10;142.93;;;127.95;;
49536;SDS011;74893;30.696;104.058;2023-12-29T01:44:02;139.57;;;124.50;;
49536;SDS011;74893;30.696;104.058;2023-12-29T01:46:30;140.05;;;125.30;;
49536;SDS011;74893;30.696;104.058;2023-12-29T01:48:58;143.45;;;128.65;;
49536;SDS011;74893;30.696;104.058;2023-12-29T01:51:26;137.38;;;122.72;;
49536;SDS011;74893;30.696;104.058;2023-12-29T01:53:54;140.43;;;125.57;;
49536;SDS011;74893;30.696;104.058;2023-12-29T01:56:22;140.05;;;125.25;;
49536;SDS011;74893;30.696;104.058;2023-12-29T01:58:49;140.95;;;125.88;;
49536;SDS011;74893;30.696;104.058;2023-12-29T02:01:17;138.82;;;123.95;;
49536;SDS011;74893;30.696;104.058;2023-12-29T02:03:44;139.52;;;124.15;;
49536;SDS011;74893;30.696;104.058;2023-12-29T02:06:11;140.65;;;125.55;;
49536;SDS011;74893;30.696;104.058;2023-12-29T02:08:42;141.00;;;125.80;;
49536;SDS011;74893;30.696;104.058;2023-12-29T02:11:09;142.77;;;127.22;;
49536;SDS011;74893;30.696;104.058;2023-12-29T02:13:36;141.68;;;126.40;;
49536;SDS011;74893;30.696;104.058;2023-12-29T02:16:16;142.18;;;126.95;;
49536;SDS011;74893;30.696;104.058;2023-12-29T02:18:45;140.50;;;125.70;;
49536;SDS011;74893;30.696;104.058;2023-12-29T02:21:13;139.98;;;124.72;;
49536;SDS011;74893;30.696;104.058;2023-12-29T02:23:40;138.95;;;124.22;;
49536;SDS011;74893;30.696;104.058;2023-12-29T02:26:07;139.10;;;124.32;;
49536;SDS011;74893;30.696;104.058;2023-12-29T02:28:38;138.10;;;123.15;;
49536;SDS011;74893;30.696;104.058;2023-12-29T02:31:07;143.15;;;127.53;;
49536;SDS011;74893;30.696;104.058;2023-12-29T02:33:37;139.55;;;124.45;;
49536;SDS011;74893;30.696;104.058;2023-12-29T02:36:05;142.65;;;127.25;;
49536;SDS011;74893;30.696;104.058;2023-12-29T02:38:33;140.48;;;125.40;;
49536;SDS011;74893;30.696;104.058;2023-12-29T02:41:00;139.65;;;124.43;;
49536;SDS011;74893;30.696;104.058;2023-12-29T02:43:27;144.05;;;128.52;;
49536;SDS011;74893;30.696;104.058;2023-12-29T02:45:54;136.35;;;121.85;;
49536;SDS011;74893;30.696;104.058;2023-12-29T02:48:21;143.95;;;128.48;;
49536;SDS011;74893;30.696;104.058;2023-12-29T02:50:48;139.73;;;124.70;;
49536;SDS011;74893;30.696;104.058;2023-12-29T02:53:15;142.45;;;127.25;;
49536;SDS011;74893;30.696;104.058;2023-12-29T02:55:44;143.20;;;127.70;;
49536;SDS011;74893;30.696;104.058;2023-12-29T02:58:11;140.10;;;125.00;;
49536;SDS011;74893;30.696;104.058;2023-12-29T03:00:38;142.70;;;127.70;;
49536;SDS011;74893;30.696;104.058;2023-12-29T03:05:55;140.30;;;125.43;;
49536;SDS011;74893;30.696;104.058;2023-12-29T03:08:22;140.20;;;125.50;;
49536;SDS011;74893;30.696;104.058;2023-12-29T03:10:49;140.63;;;125.68;;
49536;SDS011;74893;30.696;104.058;2023-12-29T03:13:16;140.73;;;125.75;;
49536;SDS011;74893;30.696;104.058;2023-12-29T03:15:43;143.23;;;127.70;;
49536;SDS011;74893;30.696;104.058;2023-12-29T03:18:10;140.07;;;125.30;;
49536;SDS011;74893;30.696;104.058;2023-12-29T03:20:37;138.82;;;124.10;;
49536;SDS011;74893;30.696;104.058;2023-12-29T03:23:04;146.77;;;131.05;;
49536;SDS011;74893;30.696;104.058;2023-12-29T03:25:37;141.70;;;126.40;;
49536;SDS011;74893;30.696;104.058;2023-12-29T03:28:04;143.30;;;127.63;;
49536;SDS011;74893;30.696;104.058;2023-12-29T03:30:31;147.52;;;131.80;;
49536;SDS011;74893;30.696;104.058;2023-12-29T03:32:58;146.23;;;129.20;;
49536;SDS011;74893;30.696;104.058;2023-12-29T03:35:25;142.98;;;127.50;;
49536;SDS011;74893;30.696;104.058;2023-12-29T03:37:52;146.15;;;130.32;;
49536;SDS011;74893;30.696;104.058;2023-12-29T03:40:19;144.85;;;129.02;;
49536;SDS011;74893;30.696;104.058;2023-12-29T03:42:46;145.50;;;129.48;;
49536;SDS011;74893;30.696;104.058;2023-12-29T03:45:13;148.63;;;132.32;;
49536;SDS011;74893;30.696;104.058;2023-12-29T03:47:40;143.45;;;127.78;;
49536;SDS011;74893;30.696;104.058;2023-12-29T03:50:07;139.02;;;123.70;;
49536;SDS011;74893;30.696;104.058;2023-12-29T03:52:34;140.95;;;125.63;;
49536;SDS011;74893;30.696;104.058;2023-12-29T03:55:01;138.90;;;123.68;;
49536;SDS011;74893;30.696;104.058;2023-12-29T03:57:28;142.88;;;127.60;;
49536;SDS011;74893;30.696;104.058;2023-12-29T03:59:55;137.27;;;122.30;;
49536;SDS011;74893;30.696;104.058;2023-12-29T04:02:22;139.85;;;124.47;;
49536;SDS011;74893;30.696;104.058;2023-12-29T04:04:49;139.43;;;124.40;;
49536;SDS011;74893;30.696;104.058;2023-12-29T04:07:16;141.20;;;125.93;;
49536;SDS011;74893;30.696;104.058;2023-12-29T04:09:43;133.80;;;119.47;;
49536;SDS011;74893;30.696;104.058;2023-12-29T04:12:10;135.98;;;121.38;;
49536;SDS011;74893;30.696;104.058;2023-12-29T04:14:37;137.02;;;122.22;;
49536;SDS011;74893;30.696;104.058;2023-12-29T04:17:04;135.30;;;120.57;;
49536;SDS011;74893;30.696;104.058;2023-12-29T04:19:39;135.93;;;121.35;;
49536;SDS011;74893;30.696;104.058;2023-12-29T04:22:07;135.82;;;121.30;;
49536;SDS011;74893;30.696;104.058;2023-12-29T04:24:34;134.82;;;120.43;;
49536;SDS011;74893;30.696;104.058;2023-12-29T04:27:01;134.73;;;120.05;;
49536;SDS011;74893;30.696;104.058;2023-12-29T04:29:28;129.80;;;115.90;;
49536;SDS011;74893;30.696;104.058;2023-12-29T04:31:55;135.55;;;120.95;;
49536;SDS011;74893;30.696;104.058;2023-12-29T04:34:22;132.55;;;118.05;;
49536;SDS011;74893;30.696;104.058;2023-12-29T04:36:49;134.00;;;119.43;;
49536;SDS011;74893;30.696;104.058;2023-12-29T04:39:16;136.52;;;122.00;;
49536;SDS011;74893;30.696;104.058;2023-12-29T04:41:43;137.60;;;122.57;;
49536;SDS011;74893;30.696;104.058;2023-12-29T04:44:10;135.88;;;121.32;;
49536;SDS011;74893;30.696;104.058;2023-12-29T04:46:37;135.25;;;120.75;;
49536;SDS011;74893;30.696;104.058;2023-12-29T04:49:04;134.45;;;120.22;;
49536;SDS011;74893;30.696;104.058;2023-12-29T04:51:31;132.57;;;118.43;;
49536;SDS011;74893;30.696;104.058;2023-12-29T04:53:58;135.98;;;121.82;;
49536;SDS011;74893;30.696;104.058;2023-12-29T04:56:25;135.23;;;120.68;;
49536;SDS011;74893;30.696;104.058;2023-12-29T04:58:52;134.65;;;120.15;;
49536;SDS011;74893;30.696;104.058;2023-12-29T05:01:19;128.00;;;114.55;;
49536;SDS011;74893;30.696;104.058;2023-12-29T05:03:46;129.57;;;115.47;;
49536;SDS011;74893;30.696;104.058;2023-12-29T05:06:13;131.15;;;117.25;;
49536;SDS011;74893;30.696;104.058;2023-12-29T05:08:40;125.85;;;112.28;;
49536;SDS011;74893;30.696;104.058;2023-12-29T05:11:06;127.88;;;114.05;;
49536;SDS011;74893;30.696;104.058;2023-12-29T05:13:33;128.07;;;114.55;;
49536;SDS011;74893;30.696;104.058;2023-12-29T05:16:00;125.22;;;111.88;;
49536;SDS011;74893;30.696;104.058;2023-12-29T05:18:29;127.57;;;113.97;;
49536;SDS011;74893;30.696;104.058;2023-12-29T05:20:56;125.50;;;112.15;;
49536;SDS011;74893;30.696;104.058;2023-12-29T05:23:23;121.90;;;108.80;;
49536;SDS011;74893;30.696;104.058;2023-12-29T05:25:50;118.78;;;106.10;;
49536;SDS011;74893;30.696;104.058;2023-12-29T05:28:17;119.40;;;106.68;;
49536;SDS011;74893;30.696;104.058;2023-12-29T05:30:48;117.90;;;105.68;;
49536;SDS011;74893;30.696;104.058;2023-12-29T05:33:15;122.70;;;109.75;;
49536;SDS011;74893;30.696;104.058;2023-12-29T05:35:42;119.00;;;106.50;;
49536;SDS011;74893;30.696;104.058;2023-12-29T05:38:09;115.47;;;103.43;;
49536;SDS011;74893;30.696;104.058;2023-12-29T05:40:36;114.65;;;102.45;;
49536;SDS011;74893;30.696;104.058;2023-12-29T05:43:03;111.25;;;99.65;;
49536;SDS011;74893;30.696;104.058;2023-12-29T05:45:30;114.03;;;102.22;;
49536;SDS011;74893;30.696;104.058;2023-12-29T05:47:57;114.95;;;102.85;;
49536;SDS011;74893;30.696;104.058;2023-12-29T05:50:24;115.40;;;103.30;;
49536;SDS011;74893;30.696;104.058;2023-12-29T05:52:51;114.50;;;102.20;;
49536;SDS011;74893;30.696;104.058;2023-12-29T05:55:18;112.90;;;101.22;;
49536;SDS011;74893;30.696;104.058;2023-12-29T05:57:45;115.88;;;103.78;;
49536;SDS011;74893;30.696;104.058;2023-12-29T06:00:12;110.43;;;98.88;;
49536;SDS011;74893;30.696;104.058;2023-12-29T06:02:42;112.53;;;100.80;;
49536;SDS011;74893;30.696;104.058;2023-12-29T06:05:12;113.07;;;101.18;;
49536;SDS011;74893;30.696;104.058;2023-12-29T06:07:42;106.13;;;94.93;;
49536;SDS011;74893;30.696;104.058;2023-12-29T06:10:09;111.25;;;99.57;;
49536;SDS011;74893;30.696;104.058;2023-12-29T06:12:36;107.20;;;96.28;;
49536;SDS011;74893;30.696;104.058;2023-12-29T06:15:03;106.13;;;95.03;;
49536;SDS011;74893;30.696;104.058;2023-12-29T06:17:30;106.80;;;95.63;;
49536;SDS011;74893;30.696;104.058;2023-12-29T06:19:58;106.15;;;94.95;;
49536;SDS011;74893;30.696;104.058;2023-12-29T06:22:26;107.10;;;95.57;;
49536;SDS011;74893;30.696;104.058;2023-12-29T06:24:53;104.07;;;93.30;;
49536;SDS011;74893;30.696;104.058;2023-12-29T06:27:20;108.32;;;96.90;;
49536;SDS011;74893;30.696;104.058;2023-12-29T06:29:48;101.00;;;90.53;;
49536;SDS011;74893;30.696;104.058;2023-12-29T06:32:14;105.35;;;94.60;;
49536;SDS011;74893;30.696;104.058;2023-12-29T06:34:42;103.22;;;91.95;;
49536;SDS011;74893;30.696;104.058;2023-12-29T06:37:09;104.03;;;93.22;;
49536;SDS011;74893;30.696;104.058;2023-12-29T06:39:36;104.72;;;93.95;;
49536;SDS011;74893;30.696;104.058;2023-12-29T06:42:04;102.32;;;91.78;;
49536;SDS011;74893;30.696;104.058;2023-12-29T06:44:31;103.20;;;92.45;;
49536;SDS011;74893;30.696;104.058;2023-12-29T06:46:58;100.55;;;89.72;;
49536;SDS011;74893;30.696;104.058;2023-12-29T06:49:25;100.40;;;89.97;;
49536;SDS011;74893;30.696;104.058;2023-12-29T06:51:52;98.47;;;88.40;;
49536;SDS011;74893;30.696;104.058;2023-12-29T06:54:19;100.97;;;90.55;;
49536;SDS011;74893;30.696;104.058;2023-12-29T06:56:46;99.68;;;89.15;;
49536;SDS011;74893;30.696;104.058;2023-12-29T06:59:14;98.38;;;88.40;;
49536;SDS011;74893;30.696;104.058;2023-12-29T07:01:41;95.80;;;85.68;;
49536;SDS011;74893;30.696;104.058;2023-12-29T07:04:11;102.50;;;91.82;;
49536;SDS011;74893;30.696;104.058;2023-12-29T07:06:39;97.82;;;87.60;;
49536;SDS011;74893;30.696;104.058;2023-12-29T07:09:06;98.85;;;88.70;;
49536;SDS011;74893;30.696;104.058;2023-12-29T07:11:34;95.35;;;85.38;;
49536;SDS011;74893;30.696;104.058;2023-12-29T07:14:01;96.72;;;86.65;;
49536;SDS011;74893;30.696;104.058;2023-12-29T07:16:28;98.30;;;88.25;;
49536;SDS011;74893;30.696;104.058;2023-12-29T07:18:55;99.13;;;88.82;;
49536;SDS011;74893;30.696;104.058;2023-12-29T07:21:22;95.70;;;85.85;;
49536;SDS011;74893;30.696;104.058;2023-12-29T07:23:49;96.32;;;86.55;;
49536;SDS011;74893;30.696;104.058;2023-12-29T07:26:16;97.97;;;87.68;;
49536;SDS011;74893;30.696;104.058;2023-12-29T07:28:44;98.35;;;88.22;;
49536;SDS011;74893;30.696;104.058;2023-12-29T07:31:11;96.45;;;86.53;;
49536;SDS011;74893;30.696;104.058;2023-12-29T07:33:38;93.20;;;83.60;;
49536;SDS011;74893;30.696;104.058;2023-12-29T07:36:05;99.70;;;89.28;;
49536;SDS011;74893;30.696;104.058;2023-12-29T07:38:33;97.78;;;87.95;;
49536;SDS011;74893;30.696;104.058;2023-12-29T07:41:03;94.75;;;84.90;;
49536;SDS011;74893;30.696;104.058;2023-12-29T07:43:31;94.85;;;85.28;;
49536;SDS011;74893;30.696;104.058;2023-12-29T07:45:58;96.40;;;86.38;;
49536;SDS011;74893;30.696;104.058;2023-12-29T07:48:25;95.47;;;85.60;;
49536;SDS011;74893;30.696;104.058;2023-12-29T07:50:52;94.90;;;85.07;;
49536;SDS011;74893;30.696;104.058;2023-12-29T07:53:19;95.97;;;86.15;;
49536;SDS011;74893;30.696;104.058;2023-12-29T07:55:47;90.70;;;81.30;;
49536;SDS011;74893;30.696;104.058;2023-12-29T07:58:15;94.35;;;84.72;;
49536;SDS011;74893;30.696;104.058;2023-12-29T08:00:42;92.63;;;83.07;;
49536;SDS011;74893;30.696;104.058;2023-12-29T08:03:09;91.97;;;82.63;;
49536;SDS011;74893;30.696;104.058;2023-12-29T08:05:36;92.32;;;82.90;;
49536;SDS011;74893;30.696;104.058;2023-12-29T08:08:04;91.72;;;82.47;;
49536;SDS011;74893;30.696;104.058;2023-12-29T08:10:31;91.15;;;81.78;;
49536;SDS011;74893;30.696;104.058;2023-12-29T08:12:58;90.90;;;81.53;;
49536;SDS011;74893;30.696;104.058;2023-12-29T08:15:25;94.28;;;84.60;;
49536;SDS011;74893;30.696;104.058;2023-12-29T08:17:52;91.22;;;81.72;;
49536;SDS011;74893;30.696;104.058;2023-12-29T08:20:19;89.03;;;79.82;;
49536;SDS011;74893;30.696;104.058;2023-12-29T08:22:48;87.30;;;78.35;;
49536;SDS011;74893;30.696;104.058;2023-12-29T08:25:15;90.90;;;81.80;;
49536;SDS011;74893;30.696;104.058;2023-12-29T08:27:44;88.85;;;79.50;;
49536;SDS011;74893;30.696;104.058;2023-12-29T08:30:12;87.03;;;77.60;;
49536;SDS011;74893;30.696;104.058;2023-12-29T08:32:39;91.43;;;82.13;;
49536;SDS011;74893;30.696;104.058;2023-12-29T08:38:02;87.43;;;78.53;;
49536;SDS011;74893;30.696;104.058;2023-12-29T08:40:29;84.53;;;75.75;;
49536;SDS011;74893;30.696;104.058;2023-12-29T08:42:56;87.03;;;77.97;;
49536;SDS011;74893;30.696;104.058;2023-12-29T08:45:23;87.55;;;78.63;;
49536;SDS011;74893;30.696;104.058;2023-12-29T08:47:50;88.55;;;79.22;;
49536;SDS011;74893;30.696;104.058;2023-12-29T08:50:17;89.30;;;80.20;;
49536;SDS011;74893;30.696;104.058;2023-12-29T08:52:44;89.90;;;80.47;;
49536;SDS011;74893;30.696;104.058;2023-12-29T08:55:11;87.80;;;78.90;;
49536;SDS011;74893;30.696;104.058;2023-12-29T08:57:38;85.28;;;76.60;;
49536;SDS011;74893;30.696;104.058;2023-12-29T09:00:05;86.05;;;77.15;;
49536;SDS011;74893;30.696;104.058;2023-12-29T09:02:35;85.55;;;76.95;;
49536;SDS011;74893;30.696;104.058;2023-12-29T09:05:02;88.35;;;79.45;;
49536;SDS011;74893;30.696;104.058;2023-12-29T09:07:29;84.78;;;76.28;;
49536;SDS011;74893;30.696;104.058;2023-12-29T09:09:56;86.45;;;77.65;;
49536;SDS011;74893;30.696;104.058;2023-12-29T09:12:23;86.45;;;77.15;;
49536;SDS011;74893;30.696;104.058;2023-12-29T09:14:52;83.63;;;75.10;;
49536;SDS011;74893;30.696;104.058;2023-12-29T09:17:19;84.70;;;76.05;;
49536;SDS011;74893;30.696;104.058;2023-12-29T09:19:46;87.60;;;78.72;;
49536;SDS011;74893;30.696;104.058;2023-12-29T09:22:14;85.57;;;76.70;;
49536;SDS011;74893;30.696;104.058;2023-12-29T09:24:41;88.15;;;78.97;;
49536;SDS011;74893;30.696;104.058;2023-12-29T09:27:08;84.22;;;75.50;;
49536;SDS011;74893;30.696;104.058;2023-12-29T09:29:36;84.63;;;75.90;;
49536;SDS011;74893;30.696;104.058;2023-12-29T09:32:03;89.55;;;80.30;;
49536;SDS011;74893;30.696;104.058;2023-12-29T09:34:30;84.88;;;75.97;;
49536;SDS011;74893;30.696;104.058;2023-12-29T09:36:57;84.70;;;76.15;;
49536;SDS011;74893;30.696;104.058;2023-12-29T09:39:24;86.05;;;77.20;;
49536;SDS011;74893;30.696;104.058;2023-12-29T09:41:52;84.35;;;75.85;;
49536;SDS011;74893;30.696;104.058;2023-12-29T09:44:19;85.63;;;76.75;;
49536;SDS011;74893;30.696;104.058;2023-12-29T09:46:49;83.72;;;75.25;;
49536;SDS011;74893;30.696;104.058;2023-12-29T09:49:19;81.88;;;73.20;;
49536;SDS011;74893;30.696;104.058;2023-12-29T09:51:46;83.63;;;74.85;;
49536;SDS011;74893;30.696;104.058;2023-12-29T09:54:14;83.75;;;75.13;;
49536;SDS011;74893;30.696;104.058;2023-12-29T09:56:41;83.13;;;74.53;;
49536;SDS011;74893;30.696;104.058;2023-12-29T09:59:09;81.47;;;73.15;;
49536;SDS011;74893;30.696;104.058;2023-12-29T10:01:37;82.07;;;73.53;;
49536;SDS011;74893;30.696;104.058;2023-12-29T10:04:04;81.72;;;73.32;;
49536;SDS011;74893;30.696;104.058;2023-12-29T10:06:32;83.72;;;75.15;;
49536;SDS011;74893;30.696;104.058;2023-12-29T10:09:01;83.07;;;74.63;;
49536;SDS011;74893;30.696;104.058;2023-12-29T10:11:34;81.55;;;73.28;;
49536;SDS011;74893;30.696;104.058;2023-12-29T10:14:03;82.05;;;73.63;;
49536;SDS011;74893;30.696;104.058;2023-12-29T10:16:38;82.57;;;74.10;;
49536;SDS011;74893;30.696;104.058;2023-12-29T10:19:27;80.47;;;72.55;;
49536;SDS011;74893;30.696;104.058;2023-12-29T10:22:08;84.93;;;76.20;;
49536;SDS011;74893;30.696;104.058;2023-12-29T10:24:39;85.95;;;76.93;;
49536;SDS011;74893;30.696;104.058;2023-12-29T10:27:09;82.20;;;73.70;;
49536;SDS011;74893;30.696;104.058;2023-12-29T10:29:36;77.90;;;69.95;;
49536;SDS011;74893;30.696;104.058;2023-12-29T10:32:03;80.95;;;72.53;;
49536;SDS011;74893;30.696;104.058;2023-12-29T10:34:30;80.78;;;72.72;;
49536;SDS011;74893;30.696;104.058;2023-12-29T10:36:58;82.80;;;74.40;;
49536;SDS011;74893;30.696;104.058;2023-12-29T10:39:26;80.72;;;71.95;;
49536;SDS011;74893;30.696;104.058;2023-12-29T10:42:15;81.43;;;73.15;;
49536;SDS011;74893;30.696;104.058;2023-12-29T10:44:41;79.15;;;71.18;;
49536;SDS011;74893;30.696;104.058;2023-12-29T10:47:09;83.78;;;75.10;;
49536;SDS011;74893;30.696;104.058;2023-12-29T10:49:36;80.82;;;72.82;;
49536;SDS011;74893;30.696;104.058;2023-12-29T10:52:12;79.15;;;71.13;;
49536;SDS011;74893;30.696;104.058;2023-12-29T10:54:43;80.30;;;72.25;;
49536;SDS011;74893;30.696;104.058;2023-12-29T10:57:11;80.03;;;71.82;;
49536;SDS011;74893;30.696;104.058;2023-12-29T10:59:38;81.53;;;73.32;;
49536;SDS011;74893;30.696;104.058;2023-12-29T11:02:06;78.18;;;70.32;;
49536;SDS011;74893;30.696;104.058;2023-12-29T11:04:35;78.47;;;70.43;;
49536;SDS011;74893;30.696;104.058;2023-12-29T11:07:02;78.60;;;70.68;;
49536;SDS011;74893;30.696;104.058;2023-12-29T11:09:30;78.30;;;70.00;;
49536;SDS011;74893;30.696;104.058;2023-12-29T11:12:00;77.40;;;69.50;;
49536;SDS011;74893;30.696;104.058;2023-12-29T11:14:27;80.13;;;72.22;;
49536;SDS011;74893;30.696;104.058;2023-12-29T11:16:54;77.50;;;69.53;;
49536;SDS011;74893;30.696;104.058;2023-12-29T11:19:28;77.40;;;69.65;;
49536;SDS011;74893;30.696;104.058;2023-12-29T11:21:55;79.15;;;71.07;;
49536;SDS011;74893;30.696;104.058;2023-12-29T11:24:23;79.88;;;71.72;;
49536;SDS011;74893;30.696;104.058;2023-12-29T11:26:50;75.68;;;67.88;;
49536;SDS011;74893;30.696;104.058;2023-12-29T11:29:18;78.78;;;70.63;;
49536;SDS011;74893;30.696;104.058;2023-12-29T11:31:45;75.45;;;67.78;;
49536;SDS011;74893;30.696;104.058;2023-12-29T11:36:46;78.38;;;70.38;;
49536;SDS011;74893;30.696;104.058;2023-12-29T11:39:30;79.80;;;71.80;;
49536;SDS011;74893;30.696;104.058;2023-12-29T11:42:11;79.32;;;71.32;;
49536;SDS011;74893;30.696;104.058;2023-12-29T11:44:40;78.80;;;70.57;;
49536;SDS011;74893;30.696;104.058;2023-12-29T11:47:14;79.05;;;71.18;;
49536;SDS011;74893;30.696;104.058;2023-12-29T11:50:01;75.80;;;68.07;;
49536;SDS011;74893;30.696;104.058;2023-12-29T11:52:35;80.07;;;71.65;;
49536;SDS011;74893;30.696;104.058;2023-12-29T11:55:07;79.25;;;71.00;;
49536;SDS011;74893;30.696;104.058;2023-12-29T11:57:34;77.22;;;69.32;;
49536;SDS011;74893;30.696;104.058;2023-12-29T12:00:02;78.82;;;70.93;;
49536;SDS011;74893;30.696;104.058;2023-12-29T12:02:31;80.47;;;72.00;;
49536;SDS011;74893;30.696;104.058;2023-12-29T12:04:58;75.40;;;67.72;;
49536;SDS011;74893;30.696;104.058;2023-12-29T12:10:18;76.07;;;68.32;;
49536;SDS011;74893;30.696;104.058;2023-12-29T12:12:40;76.18;;;68.32;;
49536;SDS011;74893;30.696;104.058;2023-12-29T12:15:40;74.50;;;66.68;;
49536;SDS011;74893;30.696;104.058;2023-12-29T12:18:00;74.22;;;66.63;;
49536;SDS011;74893;30.696;104.058;2023-12-29T12:20:33;77.13;;;69.35;;
49536;SDS011;74893;30.696;104.058;2023-12-29T12:23:01;74.97;;;67.22;;
49536;SDS011;74893;30.696;104.058;2023-12-29T12:25:29;78.13;;;70.15;;
49536;SDS011;74893;30.696;104.058;2023-12-29T12:28:00;78.60;;;70.68;;
49536;SDS011;74893;30.696;104.058;2023-12-29T12:30:28;76.15;;;68.35;;
49536;SDS011;74893;30.696;104.058;2023-12-29T12:32:59;75.43;;;67.82;;
49536;SDS011;74893;30.696;104.058;2023-12-29T12:35:26;79.28;;;71.05;;
49536;SDS011;74893;30.696;104.058;2023-12-29T12:40:41;80.03;;;71.88;;
49536;SDS011;74893;30.696;104.058;2023-12-29T12:43:11;76.65;;;68.75;;
49536;SDS011;74893;30.696;104.058;2023-12-29T12:46:02;75.82;;;68.10;;
49536;SDS011;74893;30.696;104.058;2023-12-29T12:50:55;77.55;;;69.38;;
49536;SDS011;74893;30.696;104.058;2023-12-29T12:53:24;80.75;;;72.50;;
49536;SDS011;74893;30.696;104.058;2023-12-29T12:55:51;75.57;;;67.72;;
49536;SDS011;74893;30.696;104.058;2023-12-29T12:58:19;80.82;;;72.50;;
49536;SDS011;74893;30.696;104.058;2023-12-29T13:00:47;75.60;;;67.75;;
49536;SDS011;74893;30.696;104.058;2023-12-29T13:03:14;78.25;;;70.10;;
49536;SDS011;74893;30.696;104.058;2023-12-29T13:05:42;79.07;;;70.95;;
49536;SDS011;74893;30.696;104.058;2023-12-29T13:08:09;78.22;;;69.97;;
49536;SDS011;74893;30.696;104.058;2023-12-29T13:10:41;80.53;;;72.18;;
49536;SDS011;74893;30.696;104.058;2023-12-29T13:13:09;80.57;;;71.88;;
49536;SDS011;74893;30.696;104.058;2023-12-29T13:15:46;78.57;;;70.43;;
49536;SDS011;74893;30.696;104.058;2023-12-29T13:18:14;76.20;;;68.18;;
49536;SDS011;74893;30.696;104.058;2023-12-29T13:20:44;78.10;;;70.15;;
49536;SDS011;74893;30.696;104.058;2023-12-29T13:23:13;78.45;;;70.38;;
49536;SDS011;74893;30.696;104.058;2023-12-29T13:25:43;74.78;;;67.07;;
49536;SDS011;74893;30.696;104.058;2023-12-29T13:28:10;78.40;;;70.57;;
49536;SDS011;74893;30.696;104.058;2023-12-29T13:30:37;79.00;;;70.93;;
49536;SDS011;74893;30.696;104.058;2023-12-29T13:35:49;74.30;;;66.53;;
49536;SDS011;74893;30.696;104.058;2023-12-29T13:38:25;78.78;;;70.68;;
49536;SDS011;74893;30.696;104.058;2023-12-29T13:40:58;78.35;;;70.30;;
49536;SDS011;74893;30.696;104.058;2023-12-29T13:43:28;77.13;;;69.45;;
49536;SDS011;74893;30.696;104.058;2023-12-29T13:45:56;78.82;;;70.57;;
49536;SDS011;74893;30.696;104.058;2023-12-29T13:48:23;80.70;;;72.25;;
49536;SDS011;74893;30.696;104.058;2023-12-29T13:50:50;76.95;;;68.97;;
49536;SDS011;74893;30.696;104.058;2023-12-29T13:53:18;75.80;;;67.85;;
49536;SDS011;74893;30.696;104.058;2023-12-29T13:55:45;78.07;;;69.88;;
49536;SDS011;74893;30.696;104.058;2023-12-29T13:58:12;75.72;;;67.72;;
49536;SDS011;74893;30.696;104.058;2023-12-29T14:00:40;76.22;;;68.45;;
49536;SDS011;74893;30.696;104.058;2023-12-29T14:03:14;77.38;;;69.28;;
49536;SDS011;74893;30.696;104.058;2023-12-29T14:05:51;77.75;;;69.30;;
49536;SDS011;74893;30.696;104.058;2023-12-29T14:08:22;78.43;;;70.28;;
49536;SDS011;74893;30.696;104.058;2023-12-29T14:10:50;75.00;;;67.22;;
49536;SDS011;74893;30.696;104.058;2023-12-29T14:13:17;77.25;;;69.38;;